Time;durP1;ratioP1;P1;durP2;ratioP2;P2;SDS_P1;SDS_P2;PMS_P1;PMS_P2;Temp;Humidity;BMP_temperature;BMP_pressure;BME280_temperature;BME280_humidity;BME280_pressure;Samples;Min_cycle;Max_cycle;Signal;HPM_P1;HPM_P2
2022/06/24 02:43:21;;;;;;;15.02;5.47;;;18.50;99.90;;;;;;5130921;27;20267;-90
2022/06/24 02:45:50;;;;;;;5.93;5.32;;;19.30;99.90;;;;;;5185475;22;20309;-89
2022/06/24 02:48:19;;;;;;;6.53;5.13;;;19.10;99.90;;;;;;5082842;28;20228;-89
2022/06/24 02:50:49;;;;;;;10.23;5.00;;;19.10;99.90;;;;;;5093622;28;20220;-89
2022/06/24 02:53:18;;;;;;;6.85;5.22;;;19.00;99.90;;;;;;5108970;28;20203;-88
2022/06/24 02:58:44;;;;;;;7.25;5.50;;;18.90;99.90;;;;;;5101686;23;20273;-91
2022/06/24 03:01:12;;;;;;;5.93;5.22;;;18.80;99.90;;;;;;5095360;28;20303;-91
2022/06/24 03:03:41;;;;;;;6.80;5.07;;;18.80;99.90;;;;;;5092002;28;20214;-92
2022/06/24 03:06:09;;;;;;;6.97;5.63;;;18.80;99.90;;;;;;5087285;28;20219;-90
2022/06/24 03:08:37;;;;;;;6.45;5.13;;;18.80;99.90;;;;;;5078752;28;20195;-88
2022/06/24 03:18:16;;;;;;;7.28;5.93;;;18.80;99.90;;;;;;5106333;28;20180;-92
2022/06/24 03:30:31;;;;;;;6.85;5.15;;;18.80;99.90;;;;;;5095867;28;20250;-92
2022/06/24 03:33:01;;;;;;;7.53;5.38;;;18.90;99.90;;;;;;5088991;28;20215;-90
2022/06/24 03:35:37;;;;;;;9.43;5.40;;;18.90;99.90;;;;;;5091913;28;20196;-93
2022/06/24 03:38:05;;;;;;;6.07;5.20;;;19.00;99.90;;;;;;5080673;28;20285;-91
2022/06/24 03:40:33;;;;;;;7.93;5.90;;;19.00;99.90;;;;;;5085399;28;20196;-90
2022/06/24 03:43:00;;;;;;;8.45;5.45;;;19.10;99.90;;;;;;5233310;22;20257;-91
2022/06/24 03:45:28;;;;;;;6.07;5.13;;;19.30;99.90;;;;;;5056617;28;20640;-90
2022/06/24 03:47:55;;;;;;;6.78;4.80;;;19.90;1.00;;;;;;5057622;28;20177;-90
2022/06/24 03:50:25;;;;;;;8.55;4.43;;;20.80;99.90;;;;;;5041947;28;20190;-90
2022/06/24 03:52:52;;;;;;;;;;;21.90;99.90;;;;;;5041839;28;20049;-89
2022/06/24 03:55:19;;;;;;;;;;;22.90;99.90;;;;;;5050841;28;19939;-90
2022/06/24 03:57:47;;;;;;;6.13;4.30;;;23.80;54.70;;;;;;5048778;28;20640;-90
2022/06/24 04:00:15;;;;;;;7.00;3.80;;;24.70;1.00;;;;;;5055736;28;20356;-90
2022/06/24 04:02:44;;;;;;;6.18;4.05;;;25.50;99.90;;;;;;5057102;28;20193;-93
2022/06/24 04:05:12;;;;;;;7.40;3.97;;;26.30;99.90;;;;;;5055053;28;20193;-93
2022/06/24 04:07:41;;;;;;;4.40;3.83;;;27.00;99.90;;;;;;5045447;28;20228;-92
2022/06/24 04:10:12;;;;;;;5.80;3.80;;;27.60;99.90;;;;;;5048677;28;20229;-94
2022/06/24 04:12:41;;;;;;;5.40;3.83;;;28.20;99.90;;;;;;5139508;22;20208;-93
2022/06/24 04:15:17;;;;;;;4.93;3.95;;;28.70;99.90;;;;;;5042232;28;20204;-93
2022/06/24 04:18:10;;;;;;;4.05;3.50;;;29.30;99.90;;;;;;5058689;28;20200;-94
2022/06/24 04:20:37;;;;;;;4.03;3.40;;;30.00;99.90;;;;;;5059352;28;20186;-90
2022/06/24 04:23:06;;;;;;;4.60;3.53;;;30.60;99.70;;;;;;5160303;22;20275;-92
2022/06/24 04:25:34;;;;;;;5.40;3.20;;;31.00;92.50;;;;;;5065639;28;20193;-90
2022/06/24 04:28:05;;;;;;;6.63;3.83;;;31.20;79.10;;;;;;5067917;28;20201;-95
2022/06/24 04:36:30;;;;;;;3.83;3.40;;;32.30;54.00;;;;;;5054765;28;20223;-92
2022/06/24 04:39:01;;;;;;;5.18;3.15;;;32.90;49.20;;;;;;5068688;28;20674;-92
2022/06/24 04:41:29;;;;;;;4.88;3.53;;;33.30;39.50;;;;;;5057324;28;20213;-92
2022/06/24 04:54:29;;;;;;;6.68;2.95;;;34.10;24.20;;;;;;4977658;28;20195;-92
2022/06/24 04:56:58;;;;;;;4.93;2.85;;;34.80;21.70;;;;;;4984715;28;20614;-90
2022/06/24 04:59:26;;;;;;;3.70;2.88;;;35.10;18.10;;;;;;5034982;28;20192;-90
2022/06/24 05:02:03;;;;;;;3.75;3.30;;;35.30;14.10;;;;;;5058146;28;20268;-91
2022/06/24 05:04:40;;;;;;;6.15;3.30;;;35.60;10.40;;;;;;5054463;28;20261;-94
2022/06/24 05:10:00;;;;;;;;;;;36.00;6.60;;;;;;5535735;23;20127;-91
2022/06/24 05:12:30;;;;;;;5.05;2.92;;;36.30;4.80;;;;;;5014975;28;20206;-93
2022/06/24 05:15:00;;;;;;;4.20;3.00;;;36.70;1.00;;;;;;5079670;22;20207;-90
2022/06/24 05:17:29;;;;;;;6.93;3.10;;;37.00;1.40;;;;;;5045804;28;20287;-91
2022/06/24 05:19:56;;;;;;;9.13;3.00;;;37.10;1.00;;;;;;5053413;28;20219;-90
2022/06/24 05:25:46;;;;;;;5.93;3.03;;;37.60;1.00;;;;;;5032501;28;20185;-95
2022/06/24 05:28:51;;;;;;;3.25;2.90;;;37.80;1.00;;;;;;5024367;28;20633;-95
2022/06/24 05:31:20;;;;;;;3.85;2.83;;;38.20;1.00;;;;;;5010490;28;20202;-92
2022/06/24 05:33:48;;;;;;;7.57;3.20;;;38.20;1.00;;;;;;5009522;28;20269;-92
2022/06/24 05:46:31;;;;;;;5.32;2.90;;;38.10;1.00;;;;;;5053574;23;20269;-92
2022/06/24 05:48:59;;;;;;;5.28;2.90;;;38.10;1.00;;;;;;5146250;22;20310;-92
2022/06/24 05:56:54;;;;;;;2.85;2.60;;;39.00;1.00;;;;;;5063643;28;20195;-91
2022/06/24 05:59:23;;;;;;;4.95;2.65;;;38.90;1.00;;;;;;5052718;28;20196;-91
2022/06/24 06:01:57;;;;;;;3.80;2.67;;;38.90;1.00;;;;;;5052950;28;20224;-90
2022/06/24 06:04:25;;;;;;;4.65;2.40;;;39.30;1.00;;;;;;5041482;28;20222;-91
2022/06/24 06:07:03;;;;;;;6.47;3.00;;;39.60;1.00;;;;;;5050831;28;20199;-91
2022/06/24 06:09:35;;;;;;;5.68;2.90;;;39.80;1.00;;;;;;5052627;28;20184;-92
2022/06/24 06:12:12;;;;;;;3.25;2.58;;;40.20;1.00;;;;;;5053042;28;20235;-93
2022/06/24 06:14:45;;;;;;;4.35;2.67;;;40.40;1.00;;;;;;5052811;28;20273;-92
2022/06/24 06:17:18;;;;;;;3.60;2.50;;;40.50;1.00;;;;;;5039351;28;20211;-93
2022/06/24 06:19:50;;;;;;;4.53;2.50;;;40.60;1.00;;;;;;5052890;28;20206;-93
2022/06/24 06:22:20;;;;;;;5.28;2.72;;;40.70;1.00;;;;;;5052662;28;20246;-93
2022/06/24 06:25:08;;;;;;;5.32;2.58;;;40.70;1.00;;;;;;5054157;28;20231;-93
2022/06/24 06:27:38;;;;;;;6.45;2.60;;;40.80;1.00;;;;;;5032215;28;20607;-92
2022/06/24 06:30:11;;;;;;;4.05;2.72;;;41.20;1.00;;;;;;5052505;28;20200;-93
2022/06/24 06:35:47;;;;;;;3.70;2.70;;;41.70;1.00;;;;;;5154477;22;20250;-93
2022/06/24 06:41:12;;;;;;;3.13;2.53;;;41.40;1.00;;;;;;5124191;22;20621;-93
2022/06/24 06:43:40;;;;;;;3.83;2.30;;;41.40;1.00;;;;;;5296460;22;20214;-91
2022/06/24 06:46:10;;;;;;;3.50;2.20;;;41.70;1.00;;;;;;5164695;22;20645;-90
2022/06/24 06:48:38;;;;;;;5.25;2.20;;;41.80;1.00;;;;;;5393188;22;20259;-92
2022/06/24 06:51:08;;;;;;;4.55;2.00;;;42.10;1.00;;;;;;5056970;28;20238;-93
2022/06/24 06:54:16;;;;;;;3.78;2.30;;;42.10;1.00;;;;;;5056856;28;20585;-93
2022/06/24 06:56:43;;;;;;;2.60;2.22;;;41.90;1.00;;;;;;5093133;22;20263;-92
2022/06/24 06:59:11;;;;;;;4.72;2.50;;;41.70;1.00;;;;;;5058040;28;20200;-93
2022/06/24 07:01:39;;;;;;;3.13;2.58;;;41.70;1.00;;;;;;5183532;22;20236;-90
2022/06/24 07:04:07;;;;;;;5.05;2.60;;;41.40;1.00;;;;;;5052267;28;20200;-90
2022/06/24 07:06:36;;;;;;;4.07;2.50;;;41.20;1.00;;;;;;5051977;28;20192;-90
2022/06/24 07:09:04;;;;;;;4.43;2.50;;;40.90;1.00;;;;;;5052244;28;20196;-90
2022/06/24 07:11:32;;;;;;;3.80;2.28;;;40.90;1.00;;;;;;5052604;28;20201;-91
2022/06/24 07:14:00;;;;;;;3.25;2.45;;;40.70;1.00;;;;;;5038314;28;20224;-89
2022/06/24 07:16:27;;;;;;;2.70;2.30;;;40.40;1.00;;;;;;5113926;22;20363;-91
2022/06/24 07:18:56;;;;;;;2.50;2.20;;;40.10;1.00;;;;;;5239653;22;20228;-90
2022/06/24 07:24:15;;;;;;;3.25;2.20;;;40.00;1.00;;;;;;5043271;28;20258;-95
2022/06/24 07:26:42;;;;;;;3.40;2.13;;;40.20;1.00;;;;;;5105311;22;20233;-93
2022/06/24 07:29:11;;;;;;;3.72;2.45;;;40.20;1.00;;;;;;5374255;22;20877;-90
2022/06/24 07:31:39;;;;;;;6.35;2.47;;;40.20;1.00;;;;;;5194018;22;20228;-92
2022/06/24 07:34:28;;;;;;;4.03;2.38;;;40.10;1.00;;;;;;5130519;22;20301;-94
2022/06/24 07:37:56;;;;;;;3.03;2.30;;;39.90;1.00;;;;;;5063237;28;20184;-93
2022/06/24 07:47:00;;;;;;;5.43;2.65;;;40.80;1.00;;;;;;5206869;22;20285;-92
2022/06/24 07:49:28;;;;;;;7.25;2.42;;;41.00;1.00;;;;;;5194641;22;20239;-90
2022/06/24 07:51:55;;;;;;;2.13;1.90;;;41.30;1.00;;;;;;5047524;28;20223;-93
2022/06/24 07:54:24;;;;;;;10.30;9.00;;;41.30;1.00;;;;;;5061417;28;20192;-91
2022/06/24 07:59:45;;;;;;;6.00;2.33;;;41.10;1.00;;;;;;5056106;28;20188;-92
2022/06/24 08:02:12;;;;;;;5.43;2.10;;;40.90;1.00;;;;;;5079593;23;20324;-91
2022/06/24 08:04:46;;;;;;;3.67;2.00;;;40.30;1.00;;;;;;5081039;22;20232;-93
2022/06/24 08:07:34;;;;;;;3.58;2.95;;;39.80;1.00;;;;;;5061313;28;20196;-95
2022/06/24 08:10:11;;;;;;;4.13;2.20;;;39.50;1.00;;;;;;5067103;22;20195;31
2022/06/24 08:12:41;;;;;;;3.97;2.00;;;39.60;1.00;;;;;;4999871;28;20686;-90
2022/06/24 08:15:09;;;;;;;4.72;2.00;;;39.50;1.00;;;;;;5264179;22;20697;-91
2022/06/24 08:17:40;;;;;;;6.22;2.78;;;39.40;1.00;;;;;;5112097;22;20254;-93
2022/06/24 08:20:53;;;;;;;5.22;3.40;;;39.00;1.00;;;;;;5055243;28;20201;-95
2022/06/24 08:23:27;;;;;;;7.72;2.83;;;38.90;1.00;;;;;;5035379;28;20225;-94
2022/06/24 08:29:54;;;;;;;3.78;1.98;;;39.30;1.00;;;;;;5011161;28;20197;-93
2022/06/24 08:32:22;;;;;;;2.90;2.00;;;38.70;1.00;;;;;;5063723;28;20556;-91
2022/06/24 08:34:53;;;;;;;2.00;1.70;;;38.60;1.00;;;;;;5049650;28;20224;-93
2022/06/24 08:37:44;;;;;;;3.13;1.80;;;38.70;1.00;;;;;;5047372;28;20188;-95
2022/06/24 08:40:13;;;;;;;3.55;1.90;;;38.70;1.00;;;;;;5053519;28;20195;-91
2022/06/24 08:43:02;;;;;;;6.35;2.00;;;38.20;1.00;;;;;;5060582;28;20228;-95
2022/06/24 08:45:49;;;;;;;4.80;2.20;;;37.90;1.00;;;;;;5212870;22;20228;-95
2022/06/24 08:51:07;;;;;;;;;;;38.00;1.00;;;;;;5210421;22;20071;-91
2022/06/24 08:53:35;;;;;;;;;;;37.90;1.00;;;;;;5057040;28;19967;-91
2022/06/24 08:56:03;;;;;;;2.47;1.88;;;38.00;1.00;;;;;;5100418;22;20572;-92
2022/06/24 08:58:44;;;;;;;6.68;2.20;;;38.10;1.00;;;;;;5059642;28;20201;-89
2022/06/24 09:01:16;;;;;;;3.60;1.75;;;38.10;1.00;;;;;;4973176;28;20262;-90
2022/06/24 09:03:45;;;;;;;5.63;2.20;;;38.00;1.00;;;;;;5091775;23;21022;-89
2022/06/24 09:06:39;;;;;;;5.93;2.60;;;37.70;1.00;;;;;;5243722;22;20262;-90
2022/06/24 09:09:07;;;;;;;6.00;2.30;;;37.70;1.00;;;;;;5118670;22;20698;-91
2022/06/24 09:11:39;;;;;;;7.25;2.63;;;37.60;1.00;;;;;;5063915;28;20208;-91
2022/06/24 09:14:08;;;;;;;4.90;2.20;;;37.50;1.00;;;;;;5057714;28;20199;-90
2022/06/24 09:16:50;;;;;;;5.22;2.30;;;37.40;1.00;;;;;;5059560;28;20193;-89
2022/06/24 09:19:46;;;;;;;3.97;2.30;;;37.30;1.00;;;;;;5059307;28;20173;-94
2022/06/24 09:22:21;;;;;;;4.35;2.00;;;36.90;1.00;;;;;;5057861;28;20215;-91
2022/06/24 09:27:44;;;;;;;;;;;36.30;1.00;;;;;;5044727;28;20268;-90
2022/06/24 09:30:12;;;;;;;6.47;2.10;;;36.30;1.00;;;;;;5047800;28;20489;-90
2022/06/24 09:36:06;;;;;;;3.75;2.10;;;35.80;1.00;;;;;;5013680;28;20201;-90
2022/06/24 09:38:56;;;;;;;7.68;2.40;;;35.40;1.00;;;;;;5044337;28;20192;-93
2022/06/24 09:41:25;;;;;;;5.25;2.80;;;34.70;1.00;;;;;;5053023;28;20189;-91
2022/06/24 09:47:21;;;;;;;6.22;2.60;;;34.20;1.00;;;;;;5015403;28;20189;-92
2022/06/24 09:49:56;;;;;;;;;;;33.80;1.00;;;;;;4960752;28;20054;-88
2022/06/24 09:55:41;;;;;;;5.40;2.50;;;33.30;1.00;;;;;;5052072;28;20189;-93
2022/06/24 09:58:21;;;;;;;5.60;2.63;;;32.90;1.00;;;;;;5058896;28;20193;-94
2022/06/24 10:01:13;;;;;;;6.93;2.78;;;32.70;1.00;;;;;;5056095;28;20225;-95
2022/06/24 10:06:51;;;;;;;;;;;;;;;;;;;;;
2022/06/24 10:10:07;;;;;;;7.95;2.70;;;32.20;1.00;;;;;;5047318;28;20236;-91
2022/06/24 10:12:41;;;;;;;6.45;3.78;;;32.10;1.00;;;;;;5057553;28;20591;-90
2022/06/24 10:19:00;;;;;;;4.07;2.67;;;31.90;1.00;;;;;;5042952;28;20385;-95
2022/06/24 10:21:50;;;;;;;3.25;2.53;;;31.80;1.00;;;;;;5054991;28;20207;-93
2022/06/24 10:24:52;;;;;;;3.00;2.22;;;31.70;1.00;;;;;;5062235;28;20215;-94
2022/06/24 10:28:07;;;;;;;3.65;2.60;;;31.60;1.00;;;;;;5045158;28;20207;-94
2022/06/24 10:31:15;;;;;;;3.25;2.10;;;31.60;1.00;;;;;;5047981;28;20192;-94
2022/06/24 10:33:56;;;;;;;9.35;3.00;;;31.60;1.00;;;;;;5044260;28;20254;-93
2022/06/24 10:36:32;;;;;;;6.43;2.75;;;31.70;1.00;;;;;;5057202;28;20197;-89
2022/06/24 10:39:10;;;;;;;5.28;2.65;;;31.60;1.00;;;;;;5047153;28;20274;-92
2022/06/24 10:41:38;;;;;;;3.60;2.40;;;31.70;1.00;;;;;;5043778;28;20250;-90
2022/06/24 10:44:31;;;;;;;7.22;2.88;;;31.60;1.00;;;;;;5056174;28;20230;-88
2022/06/24 10:47:38;;;;;;;5.95;2.70;;;31.60;1.00;;;;;;5042942;28;20628;-94
2022/06/24 10:50:25;;;;;;;3.35;2.30;;;31.50;1.00;;;;;;4953387;29;20220;-92
2022/06/24 10:53:10;;;;;;;5.82;2.80;;;31.40;1.00;;;;;;5055400;28;20200;-90
2022/06/24 11:01:11;;;;;;;4.35;3.15;;;31.40;1.00;;;;;;5038584;28;20259;-90
2022/06/24 11:03:53;;;;;;;3.30;2.53;;;31.40;1.00;;;;;;5045778;28;20232;-89
2022/06/24 11:06:21;;;;;;;6.80;2.80;;;31.30;1.00;;;;;;5048302;28;20197;-91
2022/06/24 11:12:08;;;;;;;3.67;2.28;;;31.20;1.00;;;;;;5020458;28;20563;-92
2022/06/24 11:14:36;;;;;;;7.00;2.63;;;31.20;1.00;;;;;;5048524;28;20224;-94
2022/06/24 11:17:10;;;;;;;6.35;2.80;;;31.30;1.00;;;;;;5046115;28;20223;-90
2022/06/24 11:20:22;;;;;;;3.72;2.55;;;31.30;1.00;;;;;;5048535;28;20519;-94
2022/06/24 11:26:23;;;;;;;8.63;2.65;;;31.30;1.00;;;;;;4940242;28;20271;-94
2022/06/24 11:31:33;;;;;;;4.53;2.70;;;31.10;1.00;;;;;;4949351;29;20215;-91
2022/06/24 11:34:29;;;;;;;9.70;2.67;;;31.00;1.00;;;;;;5059675;28;20205;-91
2022/06/24 11:41:22;;;;;;;3.40;2.63;;;31.00;1.00;;;;;;4936796;29;20208;-94
2022/06/24 11:47:07;;;;;;;6.53;2.70;;;30.90;1.00;;;;;;5079608;22;20303;-92
2022/06/24 11:50:06;;;;;;;5.65;2.30;;;31.00;1.00;;;;;;5047581;28;20201;-94
2022/06/24 11:55:44;;;;;;;5.35;2.40;;;31.10;1.00;;;;;;5037894;28;20205;-90
2022/06/24 12:01:03;;;;;;;10.32;2.50;;;31.00;1.00;;;;;;5059910;28;20221;-90
2022/06/24 12:03:42;;;;;;;5.90;2.20;;;30.90;1.00;;;;;;5102149;22;20233;-90
2022/06/24 12:20:10;;;;;;;4.70;2.28;;;30.80;1.00;;;;;;6272966;22;1703780;-93
2022/06/24 12:23:20;;;;;;;2.92;2.25;;;30.80;1.00;;;;;;6291424;22;20180;-95
2022/06/24 12:26:36;;;;;;;5.15;2.30;;;30.80;1.00;;;;;;6291311;22;20182;-94
2022/06/24 12:29:06;;;;;;;5.45;2.60;;;30.80;1.00;;;;;;6284557;22;20625;-87
2022/06/24 12:34:47;;;;;;;5.47;2.30;;;30.90;1.00;;;;;;6288421;22;20159;-92
2022/06/24 12:40:35;;;;;;;5.15;2.40;;;30.90;1.00;;;;;;6287409;22;20163;-94
2022/06/24 12:43:11;;;;;;;7.20;2.20;;;30.80;1.00;;;;;;6288554;22;20158;-88
2022/06/24 12:45:39;;;;;;;2.78;1.98;;;30.80;1.00;;;;;;6291228;22;20139;-89
2022/06/24 12:51:04;;;;;;;7.70;2.03;;;30.90;1.00;;;;;;6290256;22;20146;-90
2022/06/24 12:53:33;;;;;;;4.20;2.15;;;31.00;1.00;;;;;;6293846;22;20159;-90
2022/06/24 12:56:06;;;;;;;2.88;1.90;;;31.00;1.00;;;;;;6289418;22;20181;-92
2022/06/24 12:58:39;;;;;;;6.50;2.65;;;31.00;1.00;;;;;;6285858;22;20166;-90
2022/06/24 13:01:09;;;;;;;2.85;2.08;;;31.00;1.00;;;;;;6289694;22;20156;-91
2022/06/24 13:04:02;;;;;;;3.47;2.03;;;30.90;1.00;;;;;;6286158;22;20159;-88
2022/06/24 13:06:29;;;;;;;8.60;2.42;;;30.90;1.00;;;;;;6290473;22;20151;-89
2022/06/24 13:08:57;;;;;;;8.23;2.22;;;31.00;1.00;;;;;;6292783;22;20188;-88
2022/06/24 13:11:41;;;;;;;4.57;2.10;;;30.90;1.00;;;;;;6287027;22;20163;-90
2022/06/24 13:14:08;;;;;;;6.82;2.42;;;30.90;1.00;;;;;;6287292;22;20249;-90
2022/06/24 13:16:35;;;;;;;3.33;2.03;;;30.80;1.00;;;;;;6284958;22;20187;-86
2022/06/24 13:19:12;;;;;;;4.03;2.40;;;30.90;1.00;;;;;;6282873;22;20664;-88
2022/06/24 13:21:39;;;;;;;2.17;1.90;;;31.00;1.00;;;;;;6289486;22;20167;-89
2022/06/24 13:24:08;;;;;;;3.88;2.10;;;31.00;1.00;;;;;;6281517;22;20159;-88
2022/06/24 13:26:52;;;;;;;7.07;2.40;;;30.90;1.00;;;;;;6288164;22;20160;-91
2022/06/24 13:29:19;;;;;;;14.82;2.60;;;31.00;1.00;;;;;;6285515;22;20180;-90
2022/06/24 13:31:55;;;;;;;6.30;2.15;;;31.00;1.00;;;;;;6288571;22;20166;-92
2022/06/24 13:34:22;;;;;;;10.63;2.33;;;31.00;1.00;;;;;;6298215;22;20159;-94
2022/06/24 13:37:02;;;;;;;6.97;1.90;;;31.00;1.00;;;;;;6286654;22;20160;-94
2022/06/24 13:39:46;;;;;;;5.75;2.15;;;30.90;1.00;;;;;;6288331;22;20155;-93
2022/06/24 13:42:18;;;;;;;7.03;2.35;;;30.80;1.00;;;;;;6286152;22;20159;-94
2022/06/24 13:44:49;;;;;;;5.53;1.90;;;30.80;1.00;;;;;;6291888;22;20156;-91
2022/06/24 13:47:17;;;;;;;3.95;1.92;;;30.70;1.00;;;;;;6285746;22;20171;-89
2022/06/24 13:49:44;;;;;;;5.20;2.30;;;30.80;1.00;;;;;;6295388;22;20219;-88
2022/06/24 13:52:11;;;;;;;4.53;1.98;;;30.70;1.00;;;;;;6289676;22;20160;-88
2022/06/24 13:54:55;;;;;;;3.72;1.95;;;30.70;1.00;;;;;;6291048;22;20247;-92
2022/06/24 13:57:34;;;;;;;4.05;1.70;;;30.70;1.00;;;;;;6292607;22;20196;-92
2022/06/24 14:00:01;;;;;;;6.00;2.10;;;30.70;1.00;;;;;;6287075;22;20227;-92
2022/06/24 14:02:28;;;;;;;4.78;1.73;;;30.70;1.00;;;;;;6294751;22;20159;-91
2022/06/24 14:05:11;;;;;;;2.20;1.70;;;30.70;1.00;;;;;;6301622;22;20186;-92
2022/06/24 14:07:41;;;;;;;2.28;2.00;;;30.60;1.00;;;;;;6286084;22;20524;-93
2022/06/24 14:10:23;;;;;;;2.47;2.00;;;30.60;1.00;;;;;;6296027;22;20167;-93
2022/06/24 14:13:14;;;;;;;6.82;2.25;;;30.60;1.00;;;;;;6288192;22;20143;-92
2022/06/24 14:15:44;;;;;;;5.15;1.90;;;30.60;1.00;;;;;;6291054;22;20163;-93
2022/06/24 14:18:35;;;;;;;4.07;1.80;;;30.60;1.00;;;;;;6291362;22;20223;-94
2022/06/24 14:21:11;;;;;;;3.97;1.60;;;30.60;1.00;;;;;;6290176;22;20226;-94
2022/06/24 14:26:58;;;;;;;2.95;1.65;;;30.60;1.00;;;;;;6294206;22;20190;-91
2022/06/24 14:29:59;;;;;;;4.95;1.80;;;30.50;1.00;;;;;;6291472;22;20537;-93
2022/06/24 14:35:40;;;;;;;7.55;1.80;;;30.50;1.00;;;;;;6165440;23;20172;-92
2022/06/24 14:41:13;;;;;;;6.35;1.80;;;30.40;1.00;;;;;;6233643;22;20156;-93
2022/06/24 14:43:42;;;;;;;5.22;2.05;;;30.40;1.00;;;;;;6222429;23;20161;-89
2022/06/24 14:56:48;;;;;;;7.15;1.90;;;30.30;1.00;;;;;;6111770;23;20221;-89
2022/06/24 14:59:25;;;;;;;5.55;2.13;;;30.30;1.00;;;;;;6123394;23;20165;-92
2022/06/24 15:02:22;;;;;;;4.28;2.13;;;30.20;1.00;;;;;;6236084;22;20165;-91
2022/06/24 15:05:28;;;;;;;7.32;1.98;;;30.20;1.00;;;;;;6227276;23;20161;-94
2022/06/24 15:08:16;;;;;;;3.65;2.00;;;30.20;1.00;;;;;;6226448;22;20176;-91
2022/06/24 15:10:43;;;;;;;2.58;1.80;;;30.10;1.00;;;;;;6227427;23;20161;-91
2022/06/24 15:13:49;;;;;;;3.20;1.80;;;29.90;1.00;;;;;;6226659;23;20160;-91
2022/06/24 15:22:09;;;;;;;3.22;1.67;;;29.70;1.00;;;;;;6221051;22;20188;-90
2022/06/24 15:24:50;;;;;;;3.63;1.73;;;29.60;1.00;;;;;;6216234;22;20223;-93
2022/06/24 15:27:18;;;;;;;5.20;2.05;;;29.70;1.00;;;;;;6241383;22;20196;-93
2022/06/24 15:29:45;;;;;;;3.75;1.75;;;29.70;1.00;;;;;;6243612;22;20207;-88
2022/06/24 15:32:12;;;;;;;6.05;1.80;;;29.70;1.00;;;;;;6248577;22;20170;-90
2022/06/24 15:34:39;;;;;;;3.88;2.05;;;29.70;1.00;;;;;;6247477;23;20164;-91
2022/06/24 15:37:16;;;;;;;3.10;2.00;;;29.70;1.00;;;;;;6252698;22;20249;-93
2022/06/24 15:39:44;;;;;;;2.05;1.70;;;29.70;1.00;;;;;;6246289;23;20171;-92
2022/06/24 15:42:36;;;;;;;2.45;1.70;;;29.70;1.00;;;;;;6248739;23;20179;-96
2022/06/24 15:45:04;;;;;;;4.20;1.88;;;29.80;1.00;;;;;;6250413;23;20175;-91
2022/06/24 15:47:31;;;;;;;2.83;1.75;;;29.70;1.00;;;;;;6252554;22;20184;-90
2022/06/24 15:50:33;;;;;;;6.20;1.88;;;29.70;1.00;;;;;;6249069;22;20199;-89
2022/06/24 15:53:26;;;;;;;;;;;;;;;;;;;;;
2022/06/24 15:55:57;;;;;;;6.30;2.20;;;29.60;1.00;;;;;;6260723;22;20164;-92
2022/06/24 15:58:25;;;;;;;4.95;1.90;;;29.50;1.00;;;;;;6254857;22;20215;-88
2022/06/24 16:01:02;;;;;;;8.88;1.85;;;29.40;1.00;;;;;;6264327;22;20220;-91
2022/06/24 16:03:29;;;;;;;2.58;1.70;;;29.40;1.00;;;;;;6262523;22;20133;-90
2022/06/24 16:14:55;;;;;;;2.85;2.00;;;29.10;1.00;;;;;;6256557;22;20159;-87
2022/06/24 16:17:22;;;;;;;4.43;2.10;;;29.00;1.00;;;;;;6248824;23;20183;-88
2022/06/24 16:19:56;;;;;;;2.58;1.83;;;29.00;1.00;;;;;;6258304;23;20171;-91
2022/06/24 16:22:25;;;;;;;6.25;2.10;;;28.90;1.00;;;;;;6255658;23;20163;-87
2022/06/24 16:30:35;;;;;;;3.90;1.85;;;28.90;1.00;;;;;;6257844;23;20172;-91
2022/06/24 16:33:04;;;;;;;3.15;1.85;;;28.90;1.00;;;;;;6268529;22;20180;-94
2022/06/24 16:35:45;;;;;;;2.25;1.83;;;28.80;1.00;;;;;;6254127;23;20168;-92
2022/06/24 16:38:37;;;;;;;3.58;2.20;;;28.80;1.00;;;;;;6255943;23;20248;-91
2022/06/24 16:45:47;;;;;;;3.90;1.90;;;28.80;1.00;;;;;;6262914;23;20208;-88
2022/06/24 16:52:38;;;;;;;5.03;2.00;;;28.70;1.00;;;;;;6269245;23;20590;-92
2022/06/24 16:55:26;;;;;;;2.97;1.90;;;28.70;1.00;;;;;;6248307;23;20164;-90
2022/06/24 17:04:35;;;;;;;5.47;2.00;;;28.60;1.00;;;;;;6238752;23;20258;-87
2022/06/24 17:07:02;;;;;;;3.97;2.10;;;28.50;1.00;;;;;;6249520;22;20519;-86
2022/06/24 17:12:56;;;;;;;2.25;2.00;;;28.60;1.00;;;;;;6261463;23;20479;-89
2022/06/24 17:15:23;;;;;;;2.67;1.80;;;28.50;1.00;;;;;;6245706;23;20514;-90
2022/06/24 17:18:31;;;;;;;5.97;2.65;;;28.50;1.00;;;;;;6245953;23;20168;-88
2022/06/24 17:27:19;;;;;;;5.50;2.20;;;28.30;1.00;;;;;;6215828;22;20275;-93
2022/06/24 17:29:46;;;;;;;3.28;2.13;;;28.20;1.00;;;;;;6245829;23;20192;-89
2022/06/24 17:32:14;;;;;;;3.30;2.30;;;28.20;1.00;;;;;;6248189;23;20156;-88
2022/06/24 17:35:03;;;;;;;3.22;2.40;;;28.10;1.00;;;;;;6255076;23;20229;-90
2022/06/24 17:37:32;;;;;;;4.05;2.00;;;28.10;1.00;;;;;;6245773;23;20172;-88
2022/06/24 17:40:24;;;;;;;3.55;2.10;;;28.00;1.00;;;;;;6249797;23;20544;-91
2022/06/24 17:43:18;;;;;;;2.95;2.03;;;28.00;1.00;;;;;;6249266;23;20171;-89
2022/06/24 17:46:18;;;;;;;;;;;27.90;1.00;;;;;;6249931;23;20067;-90
2022/06/24 17:49:13;;;;;;;5.93;2.38;;;27.90;1.00;;;;;;6246294;23;20013;-92
2022/06/24 17:52:12;;;;;;;4.55;2.20;;;27.80;1.00;;;;;;6246720;23;20164;-91
2022/06/24 17:54:41;;;;;;;8.38;2.17;;;27.80;1.00;;;;;;6249261;23;20234;-88
2022/06/24 17:57:20;;;;;;;5.80;2.25;;;27.70;1.00;;;;;;6248905;23;20587;-91
2022/06/24 17:59:48;;;;;;;2.58;2.10;;;27.60;1.00;;;;;;6251132;23;20618;-91
2022/06/24 18:02:25;;;;;;;3.67;1.90;;;27.50;1.00;;;;;;6253449;23;20168;-92
2022/06/24 18:18:18;;;;;;;2.70;2.10;;;27.20;1.00;;;;;;6240052;22;20284;31
2022/06/24 18:20:46;;;;;;;3.25;2.17;;;27.10;1.00;;;;;;6145274;23;20230;-90
2022/06/24 18:23:13;;;;;;;2.92;2.20;;;27.00;1.00;;;;;;6168446;22;20469;-90
2022/06/24 18:25:40;;;;;;;;;;;26.90;1.00;;;;;;6262045;22;20168;-90
2022/06/24 18:34:15;;;;;;;2.88;2.20;;;26.70;1.00;;;;;;6254994;22;20361;-88
2022/06/24 18:48:23;;;;;;;2.67;2.20;;;26.40;1.00;;;;;;6244341;22;20334;-93
2022/06/24 18:51:08;;;;;;;6.00;2.17;;;26.40;1.00;;;;;;6242758;22;20192;-93
2022/06/24 18:57:18;;;;;;;2.45;2.05;;;26.20;1.00;;;;;;6260373;22;20124;-91
2022/06/24 18:59:45;;;;;;;4.20;2.05;;;26.10;1.00;;;;;;6248517;23;20165;-92
2022/06/24 19:05:49;;;;;;;2.92;1.90;;;26.00;1.00;;;;;;6246502;23;20202;-89
2022/06/24 19:08:17;;;;;;;3.05;2.20;;;25.80;1.00;;;;;;6245612;23;20187;-90
2022/06/24 19:10:44;;;;;;;3.78;2.20;;;25.80;1.00;;;;;;6245280;23;20188;-89
2022/06/24 19:13:11;;;;;;;4.60;1.92;;;25.70;1.00;;;;;;6245463;23;20205;-90
2022/06/24 19:15:38;;;;;;;3.20;2.30;;;25.60;1.00;;;;;;6245537;23;20252;-90
2022/06/24 19:18:06;;;;;;;2.35;2.05;;;25.60;1.00;;;;;;6245413;23;20596;-89
2022/06/24 19:20:33;;;;;;;3.03;2.03;;;25.50;1.00;;;;;;6245122;23;20512;-89
2022/06/24 19:23:03;;;;;;;5.47;2.20;;;25.40;1.00;;;;;;6245610;23;20169;-89
2022/06/24 19:25:31;;;;;;;5.00;2.00;;;25.40;1.00;;;;;;6244911;23;20167;-89
2022/06/24 19:27:58;;;;;;;5.00;2.15;;;25.30;1.00;;;;;;6245514;23;20165;-89
2022/06/24 19:30:26;;;;;;;5.47;2.40;;;25.20;1.00;;;;;;6245012;23;20646;-89
2022/06/24 19:32:54;;;;;;;3.30;2.10;;;25.10;1.00;;;;;;6245576;23;20168;-90
2022/06/24 19:35:21;;;;;;;5.22;2.47;;;25.00;1.00;;;;;;6245125;23;20243;-89
2022/06/24 19:37:48;;;;;;;3.83;2.05;;;24.90;1.00;;;;;;6244634;23;20618;-91
2022/06/24 19:40:17;;;;;;;3.47;2.22;;;24.90;1.00;;;;;;6244812;23;20239;-90
2022/06/24 19:42:44;;;;;;;6.47;2.20;;;24.80;1.00;;;;;;6244935;23;20171;-90
2022/06/24 19:45:11;;;;;;;3.05;2.33;;;24.60;1.00;;;;;;6245044;23;20509;-90
2022/06/24 19:47:39;;;;;;;2.88;2.10;;;24.60;1.00;;;;;;6244559;23;20168;-90
2022/06/24 19:50:07;;;;;;;4.18;2.60;;;24.40;1.00;;;;;;6244554;23;20188;-90
2022/06/24 19:52:34;;;;;;;2.65;2.38;;;24.30;1.00;;;;;;6245186;23;20629;-90
2022/06/24 19:55:01;;;;;;;4.53;2.42;;;24.30;1.00;;;;;;6245518;23;20196;-90
2022/06/24 19:57:30;;;;;;;2.50;2.10;;;24.10;1.00;;;;;;6245266;23;20211;-90
2022/06/24 19:59:57;;;;;;;4.80;1.92;;;24.10;1.00;;;;;;6244975;23;20164;-90
2022/06/24 20:07:54;;;;;;;6.45;2.88;;;23.80;1.00;;;;;;6245048;23;20363;-90
2022/06/24 20:10:21;;;;;;;2.95;2.28;;;23.70;1.00;;;;;;6244268;23;20515;-90
2022/06/24 20:12:50;;;;;;;3.50;2.20;;;23.70;1.00;;;;;;6245360;23;20168;-90
2022/06/24 20:15:17;;;;;;;3.60;2.20;;;23.70;1.00;;;;;;6244301;23;20171;-90
2022/06/24 20:17:45;;;;;;;;;;;23.60;1.00;;;;;;6245581;23;19989;-90
2022/06/24 20:20:12;;;;;;;;;;;23.50;1.00;;;;;;6244535;23;19989;-89
2022/06/24 20:22:39;;;;;;;;;;;23.50;1.00;;;;;;6245296;23;19916;-89
2022/06/24 20:25:07;;;;;;;;;;;23.50;1.00;;;;;;6245217;23;20224;-89
2022/06/24 20:27:34;;;;;;;;;;;23.40;1.00;;;;;;6244321;23;19916;-89
2022/06/24 20:30:03;;;;;;;;;;;23.40;1.00;;;;;;6246306;23;19915;-90
2022/06/24 20:32:31;;;;;;;3.72;2.53;;;23.40;1.00;;;;;;6245370;23;20255;-89
2022/06/24 20:34:59;;;;;;;3.15;2.20;;;23.30;1.00;;;;;;6247020;23;20243;-90
2022/06/24 20:37:26;;;;;;;4.22;2.10;;;23.30;1.00;;;;;;6246179;23;20191;-90
2022/06/24 20:39:53;;;;;;;5.22;2.58;;;23.30;1.00;;;;;;6246806;23;20537;-89
2022/06/24 20:42:21;;;;;;;5.50;2.45;;;23.20;1.00;;;;;;6245914;23;20165;-90
2022/06/24 20:44:49;;;;;;;5.25;2.38;;;23.20;1.00;;;;;;6246401;23;20671;-88
2022/06/24 20:47:18;;;;;;;4.13;2.35;;;23.20;1.00;;;;;;6246025;23;20595;-90